createdAt,value
2023-01-22T00:01:22.609Z,23.20
2023-01-22T00:03:54.749Z,22.90
2023-01-22T00:06:26.686Z,22.00
2023-01-22T00:08:58.408Z,20.40
2023-01-22T00:11:30.178Z,21.80
2023-01-22T00:14:01.912Z,20.70
2023-01-22T00:16:33.690Z,19.00
2023-01-22T00:19:05.706Z,19.30
2023-01-22T00:21:38.084Z,20.40
2023-01-22T00:24:10.842Z,16.90
2023-01-22T00:26:42.560Z,19.40
2023-01-22T00:29:14.969Z,20.30
2023-01-22T00:31:46.947Z,19.30
2023-01-22T00:34:18.976Z,21.50
2023-01-22T00:36:50.757Z,19.70
2023-01-22T00:39:22.490Z,18.50
2023-01-22T00:41:54.352Z,20.10
2023-01-22T00:44:26.105Z,18.10
2023-01-22T00:46:57.840Z,19.10
2023-01-22T00:49:29.577Z,17.80
2023-01-22T00:52:01.278Z,19.00
2023-01-22T00:54:33.447Z,19.20
2023-01-22T00:57:05.231Z,19.40
2023-01-22T00:59:37.838Z,18.80
2023-01-22T01:02:09.752Z,18.00
2023-01-22T01:04:41.536Z,17.70
2023-01-22T01:07:13.255Z,19.50
2023-01-22T01:09:44.955Z,18.90
2023-01-22T01:12:16.641Z,17.10
2023-01-22T01:14:48.407Z,17.80
2023-01-22T01:17:20.093Z,16.90
2023-01-22T01:19:52.003Z,16.40
2023-01-22T01:22:23.677Z,17.60
2023-01-22T01:24:55.342Z,17.50
2023-01-22T01:27:27.066Z,17.40
2023-01-22T01:29:58.731Z,16.40
2023-01-22T01:32:30.420Z,17.20
2023-01-22T01:35:02.157Z,15.30
2023-01-22T01:37:33.843Z,15.30
2023-01-22T01:40:06.945Z,16.80
2023-01-22T01:42:43.142Z,15.40
2023-01-22T01:45:35.350Z,13.60
2023-01-22T01:48:13.498Z,14.20
2023-01-22T01:50:50.622Z,15.20
2023-01-22T01:53:22.415Z,13.70
2023-01-22T01:55:55.429Z,13.80
2023-01-22T01:58:30.148Z,13.40
2023-01-22T02:01:07.458Z,14.00
2023-01-22T02:06:14.602Z,11.00
2023-01-22T02:08:48.551Z,13.40
2023-01-22T02:11:21.708Z,10.80
2023-01-22T02:13:58.049Z,11.60
2023-01-22T02:16:29.867Z,13.50
2023-01-22T02:19:01.660Z,11.70
2023-01-22T02:21:40.398Z,13.00
2023-01-22T02:24:15.000Z,12.10
2023-01-22T02:26:47.472Z,13.70
2023-01-22T02:29:19.133Z,11.80
2023-01-22T02:31:51.071Z,13.00
2023-01-22T02:34:24.479Z,11.00
2023-01-22T02:36:56.890Z,11.40
2023-01-22T02:39:28.774Z,12.60
2023-01-22T02:42:01.318Z,11.10
2023-01-22T02:44:33.072Z,11.90
2023-01-22T02:47:04.794Z,11.50
2023-01-22T02:49:36.476Z,9.40
2023-01-22T02:52:08.199Z,12.20
2023-01-22T02:54:39.955Z,10.60
2023-01-22T02:57:11.689Z,12.60
2023-01-22T02:59:43.476Z,12.40
2023-01-22T03:02:15.270Z,12.40
2023-01-22T03:04:50.092Z,12.50
2023-01-22T03:07:21.840Z,12.20
2023-01-22T03:09:53.571Z,11.80
2023-01-22T03:12:25.304Z,11.70
2023-01-22T03:15:14.673Z,10.70
2023-01-22T03:18:04.205Z,11.00
2023-01-22T03:20:56.857Z,11.50
2023-01-22T03:23:28.630Z,9.90
2023-01-22T03:26:00.369Z,10.00
2023-01-22T03:28:32.112Z,10.50
2023-01-22T03:31:03.897Z,9.30
2023-01-22T03:33:36.423Z,10.70
2023-01-22T03:36:10.801Z,8.80
2023-01-22T03:38:43.122Z,11.50
2023-01-22T03:41:17.337Z,11.00
2023-01-22T03:43:49.209Z,9.80
2023-01-22T03:46:22.096Z,8.70
2023-01-22T03:48:54.752Z,9.60
2023-01-22T03:51:26.755Z,9.10
2023-01-22T03:53:59.009Z,8.80
2023-01-22T03:56:31.224Z,9.20
2023-01-22T03:59:02.938Z,9.50
2023-01-22T04:01:34.813Z,8.20
2023-01-22T04:04:07.307Z,9.10
2023-01-22T04:06:39.044Z,7.80
2023-01-22T04:09:10.885Z,7.50
2023-01-22T04:11:42.580Z,6.80
2023-01-22T04:14:14.330Z,7.20
2023-01-22T04:16:46.217Z,7.40
2023-01-22T04:19:17.900Z,6.00
2023-01-22T04:21:49.607Z,6.80
2023-01-22T04:24:21.339Z,5.90
2023-01-22T04:26:53.787Z,6.00
2023-01-22T04:29:25.490Z,7.30
2023-01-22T04:31:57.214Z,6.30
2023-01-22T04:34:29.030Z,6.10
2023-01-22T04:37:00.829Z,6.20
2023-01-22T04:39:32.975Z,5.60
2023-01-22T04:42:04.879Z,5.60
2023-01-22T04:44:36.574Z,6.10
2023-01-22T04:47:08.432Z,4.90
2023-01-22T04:49:40.219Z,5.70
2023-01-22T04:52:11.900Z,5.30
2023-01-22T04:54:43.891Z,5.20
2023-01-22T04:57:15.692Z,5.20
2023-01-22T04:59:47.411Z,4.80
2023-01-22T05:02:19.152Z,4.90
2023-01-22T05:04:51.043Z,4.80
2023-01-22T05:07:22.744Z,5.30
2023-01-22T05:09:54.503Z,7.20
2023-01-22T05:12:26.252Z,7.60
2023-01-22T05:14:59.252Z,7.20
2023-01-22T05:17:30.995Z,6.90
2023-01-22T05:20:02.907Z,8.00
2023-01-22T05:22:34.669Z,9.00
2023-01-22T05:25:07.731Z,7.20
2023-01-22T05:27:39.522Z,7.00
2023-01-22T05:30:14.005Z,6.00
2023-01-22T05:32:45.823Z,5.50
2023-01-22T05:35:17.819Z,5.50
2023-01-22T05:37:49.488Z,5.80
2023-01-22T05:40:21.500Z,5.20
2023-01-22T05:42:53.162Z,5.40
2023-01-22T05:45:24.916Z,5.10
2023-01-22T05:47:56.905Z,5.00
2023-01-22T05:50:28.711Z,5.20
2023-01-22T05:53:00.467Z,5.30
2023-01-22T05:55:32.945Z,5.20
2023-01-22T05:58:06.322Z,4.80
2023-01-22T06:00:38.349Z,4.70
2023-01-22T06:03:10.031Z,5.20
2023-01-22T06:05:41.739Z,4.70
2023-01-22T06:08:13.462Z,5.00
2023-01-22T06:10:45.374Z,4.60
2023-01-22T06:13:17.074Z,3.90
2023-01-22T06:15:48.880Z,5.40
2023-01-22T06:18:20.555Z,4.00
2023-01-22T06:20:52.535Z,5.00
2023-01-22T06:23:25.968Z,5.40
2023-01-22T06:26:00.142Z,5.90
2023-01-22T06:28:32.424Z,5.80
2023-01-22T06:31:07.911Z,5.10
2023-01-22T06:33:41.196Z,5.60
2023-01-22T06:36:13.204Z,6.20
2023-01-22T06:38:44.933Z,6.20
2023-01-22T06:41:16.664Z,6.30
2023-01-22T06:43:48.379Z,5.70
2023-01-22T06:46:20.162Z,6.10
2023-01-22T06:48:51.903Z,5.60
2023-01-22T06:51:23.717Z,5.20
2023-01-22T06:53:55.489Z,7.10
2023-01-22T06:56:27.931Z,6.10
2023-01-22T06:58:59.624Z,6.80
2023-01-22T07:01:31.451Z,6.20
2023-01-22T07:04:03.285Z,6.10
2023-01-22T07:06:34.990Z,5.80
2023-01-22T07:09:06.728Z,6.50
2023-01-22T07:11:38.455Z,6.30
2023-01-22T07:14:10.286Z,6.20
2023-01-22T07:16:42.063Z,5.40
2023-01-22T07:19:13.740Z,6.70
2023-01-22T07:21:45.461Z,5.90
2023-01-22T07:24:17.683Z,6.40
2023-01-22T07:26:49.596Z,7.20
2023-01-22T07:29:21.344Z,8.60
2023-01-22T07:31:53.185Z,10.90
2023-01-22T07:34:25.502Z,7.50
2023-01-22T07:36:57.287Z,9.40
2023-01-22T07:39:29.047Z,11.80
2023-01-22T07:42:01.322Z,7.90
2023-01-22T07:44:33.268Z,6.40
2023-01-22T07:47:05.044Z,6.00
2023-01-22T07:49:37.138Z,13.90
2023-01-22T07:52:08.985Z,6.90
2023-01-22T07:54:40.779Z,7.50
2023-01-22T07:57:15.402Z,7.50
2023-01-22T07:59:47.199Z,8.50
2023-01-22T08:02:19.057Z,12.20
2023-01-22T08:04:50.805Z,8.70
2023-01-22T08:07:23.463Z,6.70
2023-01-22T08:09:55.356Z,7.10
2023-01-22T08:12:27.116Z,6.20
2023-01-22T08:14:58.866Z,5.30
2023-01-22T08:17:30.644Z,6.10
2023-01-22T08:20:02.384Z,5.50
2023-01-22T08:22:34.157Z,8.60
2023-01-22T08:25:06.941Z,10.30
2023-01-22T08:27:38.983Z,19.60
2023-01-22T08:30:13.203Z,16.20
2023-01-22T08:32:45.490Z,15.70
2023-01-22T08:35:17.410Z,24.00
2023-01-22T08:37:49.271Z,28.90
2023-01-22T08:40:21.115Z,25.70
2023-01-22T08:42:55.088Z,20.20
2023-01-22T08:45:27.147Z,15.30
2023-01-22T08:48:00.371Z,13.30
2023-01-22T08:50:32.167Z,10.00
2023-01-22T08:53:03.871Z,8.60
2023-01-22T08:55:35.614Z,7.90
2023-01-22T08:58:07.868Z,9.30
2023-01-22T09:00:39.903Z,8.00
2023-01-22T09:03:11.664Z,11.30
2023-01-22T09:05:43.448Z,18.30
2023-01-22T09:08:15.683Z,14.20
2023-01-22T09:10:47.463Z,12.00
2023-01-22T09:13:19.231Z,10.40
2023-01-22T09:15:50.909Z,8.60
2023-01-22T09:18:22.637Z,16.00
2023-01-22T09:20:54.395Z,17.30
2023-01-22T09:23:26.243Z,11.50
2023-01-22T09:25:58.020Z,15.10
2023-01-22T09:28:29.776Z,12.60
2023-01-22T09:31:01.699Z,12.40
2023-01-22T09:33:33.551Z,8.40
2023-01-22T09:36:13.774Z,7.30
2023-01-22T09:38:45.689Z,8.70
2023-01-22T09:41:25.099Z,8.70
2023-01-22T09:44:00.442Z,9.30
2023-01-22T09:46:38.218Z,11.00
2023-01-22T09:49:17.714Z,9.50
2023-01-22T09:51:54.514Z,13.10
2023-01-22T09:54:28.774Z,12.80
2023-01-22T09:57:03.896Z,19.50
2023-01-22T09:59:40.330Z,18.50
2023-01-22T10:02:25.383Z,12.90
2023-01-22T10:05:04.005Z,19.00
2023-01-22T10:07:40.831Z,18.80
2023-01-22T10:10:22.767Z,13.10
2023-01-22T10:13:00.249Z,11.60
2023-01-22T10:15:32.303Z,9.50
2023-01-22T10:18:28.780Z,10.50
2023-01-22T10:21:02.067Z,9.50
2023-01-22T10:23:35.347Z,10.20
2023-01-22T10:26:17.304Z,7.20
2023-01-22T10:28:52.058Z,6.00
2023-01-22T10:31:28.387Z,6.90
2023-01-22T10:34:05.513Z,7.50
2023-01-22T10:36:37.416Z,6.60
2023-01-22T10:39:14.256Z,6.20
2023-01-22T10:41:48.183Z,5.90
2023-01-22T10:44:26.615Z,6.90
2023-01-22T10:47:18.318Z,6.60
2023-01-22T10:49:50.740Z,6.90
2023-01-22T10:52:29.010Z,6.30
2023-01-22T10:55:01.596Z,6.10
2023-01-22T10:57:36.147Z,7.20
2023-01-22T11:00:24.307Z,6.00
2023-01-22T11:02:56.138Z,6.80
2023-01-22T11:05:32.863Z,7.20
2023-01-22T11:08:08.003Z,7.80
2023-01-22T11:10:46.361Z,7.70
2023-01-22T11:13:23.056Z,6.80
2023-01-22T11:16:01.832Z,7.10
2023-01-22T11:18:36.318Z,7.40
2023-01-22T11:21:15.225Z,6.70
2023-01-22T11:23:53.357Z,6.90
2023-01-22T11:26:38.899Z,6.70
2023-01-22T11:29:20.394Z,7.10
2023-01-22T11:32:03.865Z,6.90
2023-01-22T11:35:02.449Z,6.30
2023-01-22T11:37:46.683Z,6.40
2023-01-22T11:40:27.473Z,8.40
2023-01-22T11:43:29.525Z,6.80
2023-01-22T11:46:16.247Z,8.20
2023-01-22T11:49:00.905Z,8.40
2023-01-22T11:51:40.988Z,8.70
2023-01-22T11:54:29.937Z,8.00
2023-01-22T11:57:11.166Z,8.60
2023-01-22T12:00:01.256Z,8.90
2023-01-22T12:02:46.470Z,7.70
2023-01-22T12:05:34.995Z,7.60
2023-01-22T12:08:21.473Z,7.50
2023-01-22T12:11:12.290Z,7.90
2023-01-22T12:14:10.571Z,7.70
2023-01-22T12:16:52.389Z,9.00
2023-01-22T12:19:48.474Z,9.40
2023-01-22T12:22:32.218Z,8.40
2023-01-22T12:25:13.538Z,7.80
2023-01-22T12:27:49.105Z,7.90
2023-01-22T12:30:24.811Z,8.40
2023-01-22T12:33:00.107Z,8.80
2023-01-22T12:35:33.627Z,9.80
2023-01-22T12:38:15.017Z,9.60
2023-01-22T12:41:07.104Z,9.80
2023-01-22T12:43:44.662Z,9.70
2023-01-22T12:46:26.435Z,10.40
2023-01-22T12:49:05.701Z,9.80
2023-01-22T12:51:43.158Z,8.60
2023-01-22T12:54:23.373Z,9.20
2023-01-22T12:56:58.351Z,10.70
2023-01-22T12:59:47.783Z,9.20
2023-01-22T13:02:41.969Z,9.30
2023-01-22T13:05:22.489Z,10.10
2023-01-22T13:08:06.145Z,10.20
2023-01-22T13:13:23.669Z,8.70
2023-01-22T13:15:59.016Z,9.00
2023-01-22T13:18:34.307Z,9.30
2023-01-22T13:21:08.738Z,8.90
2023-01-22T13:23:44.028Z,7.80
2023-01-22T13:26:22.632Z,9.80
2023-01-22T13:28:58.887Z,9.70
2023-01-22T13:31:30.965Z,10.10
2023-01-22T13:34:08.849Z,8.60
2023-01-22T13:36:46.311Z,9.40
2023-01-22T13:39:21.246Z,10.90
2023-01-22T13:41:55.327Z,11.10
2023-01-22T13:44:32.623Z,10.60
2023-01-22T13:47:05.213Z,10.80
2023-01-22T13:49:42.825Z,10.70
2023-01-22T13:52:19.799Z,10.40
2023-01-22T13:55:03.531Z,10.50
2023-01-22T13:57:35.511Z,9.80
2023-01-22T14:00:21.536Z,10.30
2023-01-22T14:02:53.798Z,10.90
2023-01-22T14:05:27.539Z,10.00
2023-01-22T14:08:09.070Z,11.00
2023-01-22T14:10:42.316Z,14.50
2023-01-22T14:13:15.482Z,11.90
2023-01-22T14:15:59.316Z,14.30
2023-01-22T14:18:31.134Z,12.60
2023-01-22T14:21:03.033Z,8.20
2023-01-22T14:23:35.168Z,10.20
2023-01-22T14:26:08.825Z,6.70
2023-01-22T14:28:40.797Z,8.30
2023-01-22T14:31:12.509Z,10.30
2023-01-22T14:33:44.276Z,10.50
2023-01-22T14:36:15.965Z,10.50
2023-01-22T14:38:48.676Z,17.20
2023-01-22T14:41:20.495Z,12.60
2023-01-22T14:43:52.287Z,15.00
2023-01-22T14:46:24.098Z,14.60
2023-01-22T14:48:55.927Z,15.80
2023-01-22T14:51:27.724Z,19.90
2023-01-22T14:53:59.661Z,21.70
2023-01-22T14:56:31.337Z,19.10
2023-01-22T14:59:04.558Z,33.30
2023-01-22T15:01:36.309Z,20.60
2023-01-22T15:04:08.683Z,15.70
2023-01-22T15:06:40.429Z,14.50
2023-01-22T15:09:13.029Z,12.30
2023-01-22T15:11:46.251Z,10.10
2023-01-22T15:14:18.015Z,10.80
2023-01-22T15:16:49.940Z,14.20
2023-01-22T15:19:22.047Z,11.40
2023-01-22T15:21:54.035Z,12.80
2023-01-22T15:24:27.865Z,12.90
2023-01-22T15:26:59.854Z,12.40
2023-01-22T15:29:31.815Z,10.50
2023-01-22T15:32:03.790Z,11.00
2023-01-22T15:34:35.520Z,14.10
2023-01-22T15:37:07.856Z,11.10
2023-01-22T15:39:39.649Z,12.30
2023-01-22T15:42:11.574Z,14.00
2023-01-22T15:44:43.344Z,13.50
2023-01-22T15:47:15.518Z,12.90
2023-01-22T15:49:47.458Z,13.40
2023-01-22T15:52:19.406Z,12.70
2023-01-22T15:54:53.472Z,11.70
2023-01-22T15:57:25.495Z,19.00
2023-01-22T15:59:57.457Z,20.50
2023-01-22T16:02:29.369Z,24.60
2023-01-22T16:05:01.086Z,19.50
2023-01-22T16:07:32.911Z,18.10
2023-01-22T16:10:04.780Z,14.10
2023-01-22T16:12:36.635Z,11.00
2023-01-22T16:15:11.145Z,12.40
2023-01-22T16:17:43.201Z,14.40
2023-01-22T16:20:15.870Z,14.70
2023-01-22T16:22:47.569Z,13.70
2023-01-22T16:25:19.767Z,14.40
2023-01-22T16:27:51.720Z,16.60
2023-01-22T16:30:23.513Z,20.50
2023-01-22T16:32:55.556Z,18.00
2023-01-22T16:35:27.611Z,24.50
2023-01-22T16:37:59.355Z,19.40
2023-01-22T16:40:32.622Z,14.00
2023-01-22T16:43:05.566Z,13.40
2023-01-22T16:45:37.646Z,14.30
2023-01-22T16:48:09.694Z,14.00
2023-01-22T16:50:41.478Z,13.70
2023-01-22T16:53:13.388Z,14.90
2023-01-22T16:55:45.165Z,17.30
2023-01-22T16:58:16.817Z,15.30
2023-01-22T17:00:49.908Z,16.00
2023-01-22T17:03:21.694Z,17.40
2023-01-22T17:05:53.625Z,16.50
2023-01-22T17:08:25.421Z,16.00
2023-01-22T17:10:57.583Z,16.30
2023-01-22T17:13:31.210Z,16.60
2023-01-22T17:16:06.838Z,15.90
2023-01-22T17:18:38.931Z,15.30
2023-01-22T17:21:13.702Z,13.40
2023-01-22T17:23:45.572Z,14.60
2023-01-22T17:26:20.739Z,14.00
2023-01-22T17:28:53.217Z,16.70
2023-01-22T17:31:27.193Z,19.40
2023-01-22T17:33:59.531Z,22.60
2023-01-22T17:36:31.545Z,20.20
2023-01-22T17:39:04.661Z,20.80
2023-01-22T17:41:36.489Z,12.70
2023-01-22T17:44:08.559Z,11.80
2023-01-22T17:46:40.952Z,12.80
2023-01-22T17:49:13.277Z,12.10
2023-01-22T17:51:45.999Z,11.10
2023-01-22T17:54:19.486Z,12.60
2023-01-22T17:56:53.402Z,13.50
2023-01-22T17:59:26.635Z,11.80
2023-01-22T18:01:59.897Z,16.40
2023-01-22T18:04:34.446Z,13.80
2023-01-22T18:07:06.351Z,11.90
2023-01-22T18:09:40.133Z,9.50
2023-01-22T18:12:12.081Z,12.20
2023-01-22T18:14:43.969Z,12.70
2023-01-22T18:17:15.669Z,9.40
2023-01-22T18:19:47.581Z,9.20
2023-01-22T18:22:19.634Z,12.70
2023-01-22T18:24:54.148Z,11.20
2023-01-22T18:27:26.330Z,11.50
2023-01-22T18:29:58.170Z,8.80
2023-01-22T18:32:31.245Z,20.00
2023-01-22T18:35:03.721Z,17.60
2023-01-22T18:37:37.470Z,19.60
2023-01-22T18:40:12.701Z,16.70
2023-01-22T18:42:44.643Z,13.50
2023-01-22T18:45:17.248Z,13.60
2023-01-22T18:47:52.880Z,14.20
2023-01-22T18:50:24.973Z,13.80
2023-01-22T18:52:56.722Z,13.80
2023-01-22T18:55:28.949Z,12.70
2023-01-22T18:58:30.511Z,13.50
2023-01-22T19:01:11.593Z,13.90
2023-01-22T19:03:45.545Z,17.70
2023-01-22T19:06:19.896Z,18.00
2023-01-22T19:08:57.000Z,18.10
2023-01-22T19:11:29.452Z,15.30
2023-01-22T19:14:03.403Z,15.00
2023-01-22T19:16:35.972Z,15.50
2023-01-22T19:19:11.576Z,16.00
2023-01-22T19:21:47.162Z,17.10
2023-01-22T19:24:22.462Z,15.40
2023-01-22T19:26:55.212Z,14.80
2023-01-22T19:29:27.729Z,15.90
2023-01-22T19:31:59.722Z,14.90
2023-01-22T19:34:32.452Z,14.20
2023-01-22T19:37:06.347Z,17.70
2023-01-22T19:39:40.806Z,22.60
2023-01-22T19:42:13.416Z,21.40
2023-01-22T19:44:45.392Z,19.10
2023-01-22T19:47:17.653Z,17.70
2023-01-22T19:49:49.410Z,15.70
2023-01-22T19:52:21.682Z,16.60
2023-01-22T19:54:53.852Z,15.90
2023-01-22T19:57:30.275Z,19.40
2023-01-22T20:00:02.073Z,16.00
2023-01-22T20:02:33.890Z,17.00
2023-01-22T20:05:06.237Z,14.40
2023-01-22T20:07:37.977Z,14.50
2023-01-22T20:10:11.622Z,15.30
2023-01-22T20:12:44.454Z,11.50
2023-01-22T20:15:16.619Z,10.80
2023-01-22T20:17:50.414Z,7.90
2023-01-22T20:20:22.433Z,7.30
2023-01-22T20:22:55.048Z,8.30
2023-01-22T20:25:28.121Z,9.40
2023-01-22T20:28:00.625Z,10.10
2023-01-22T20:30:32.416Z,10.10
2023-01-22T20:33:04.176Z,9.50
2023-01-22T20:35:36.119Z,13.60
2023-01-22T20:38:07.873Z,15.80
2023-01-22T20:40:42.196Z,9.30
2023-01-22T20:43:14.075Z,11.30
2023-01-22T20:45:46.790Z,10.10
2023-01-22T20:48:18.669Z,9.40
2023-01-22T20:50:50.429Z,12.30
2023-01-22T20:53:22.886Z,11.50
2023-01-22T20:56:03.243Z,10.70
2023-01-22T20:58:35.357Z,12.60
2023-01-22T21:01:09.147Z,11.90
2023-01-22T21:03:41.045Z,10.20
2023-01-22T21:06:15.383Z,10.70
2023-01-22T21:08:51.259Z,12.40
2023-01-22T21:11:24.263Z,13.00
2023-01-22T21:13:56.920Z,12.80
2023-01-22T21:16:30.637Z,12.10
2023-01-22T21:19:04.062Z,12.80
2023-01-22T21:21:36.903Z,12.60
2023-01-22T21:24:09.945Z,12.00
2023-01-22T21:26:42.417Z,14.40
2023-01-22T21:29:17.391Z,15.20
2023-01-22T21:31:50.758Z,13.40
2023-01-22T21:34:25.753Z,9.70
2023-01-22T21:36:58.783Z,12.00
2023-01-22T21:39:31.654Z,8.80
2023-01-22T21:42:21.420Z,11.40
2023-01-22T21:45:10.385Z,8.80
2023-01-22T21:47:42.283Z,8.80
2023-01-22T21:50:14.693Z,9.40
2023-01-22T21:52:48.920Z,8.70
2023-01-22T21:55:23.464Z,8.60
2023-01-22T21:57:55.186Z,9.30
2023-01-22T22:00:26.923Z,9.70
2023-01-22T22:02:58.746Z,9.40
2023-01-22T22:05:30.561Z,9.00
2023-01-22T22:08:02.868Z,9.00
2023-01-22T22:10:34.743Z,8.10
2023-01-22T22:13:06.633Z,7.90
2023-01-22T22:15:38.938Z,8.70
2023-01-22T22:18:10.832Z,8.10
2023-01-22T22:20:42.578Z,8.40
2023-01-22T22:23:14.478Z,8.60
2023-01-22T22:25:48.920Z,9.40
2023-01-22T22:28:20.617Z,8.80
2023-01-22T22:30:52.612Z,9.40
2023-01-22T22:33:24.478Z,9.40
2023-01-22T22:35:56.224Z,9.90
2023-01-22T22:38:27.914Z,8.00
2023-01-22T22:41:04.794Z,8.20
2023-01-22T22:43:37.775Z,8.80
2023-01-22T22:46:12.983Z,8.80
2023-01-22T22:48:45.841Z,8.30
2023-01-22T22:51:20.577Z,9.10
2023-01-22T22:53:55.217Z,9.50
2023-01-22T22:56:27.384Z,9.70
2023-01-22T22:59:00.820Z,9.30
2023-01-22T23:01:33.436Z,8.80
2023-01-22T23:04:05.841Z,9.00
2023-01-22T23:06:38.637Z,8.60
2023-01-22T23:09:12.204Z,9.20
2023-01-22T23:11:44.864Z,8.90
2023-01-22T23:14:16.623Z,8.80
2023-01-22T23:16:48.745Z,8.80
2023-01-22T23:19:24.358Z,9.50
2023-01-22T23:21:57.975Z,9.80
2023-01-22T23:24:31.838Z,9.00
2023-01-22T23:27:03.712Z,9.60
2023-01-22T23:29:35.512Z,13.20
2023-01-22T23:32:08.132Z,11.20
2023-01-22T23:34:41.148Z,11.00
2023-01-22T23:37:14.271Z,10.40
2023-01-22T23:39:49.278Z,10.40
2023-01-22T23:42:21.251Z,8.30
2023-01-22T23:44:52.993Z,8.50
2023-01-22T23:47:27.119Z,7.90
2023-01-22T23:49:58.964Z,7.20
2023-01-22T23:52:30.658Z,6.50
2023-01-22T23:55:02.651Z,5.20
2023-01-22T23:57:34.439Z,6.60
